sensor_id;sensor_type;location;lat;lon;timestamp;pressure;altitude;pressure_sealevel;temperature;humidity
7966;BME280;4028;43.272;26.932;2023-03-24T00:01:59;99306.13;;;7.43;100.00
7966;BME280;4028;43.272;26.932;2023-03-24T00:04:24;99309.19;;;7.37;100.00
7966;BME280;4028;43.272;26.932;2023-03-24T00:06:50;99304.53;;;7.40;100.00
7966;BME280;4028;43.272;26.932;2023-03-24T00:09:16;99301.78;;;7.42;100.00
7966;BME280;4028;43.272;26.932;2023-03-24T00:11:43;99302.88;;;7.39;100.00
7966;BME280;4028;43.272;26.932;2023-03-24T00:14:09;99305.50;;;7.39;100.00
7966;BME280;4028;43.272;26.932;2023-03-24T00:16:37;99296.28;;;7.34;100.00
7966;BME280;4028;43.272;26.932;2023-03-24T00:19:08;99268.06;;;7.13;100.00
7966;BME280;4028;43.272;26.932;2023-03-24T00:21:33;99299.75;;;7.34;100.00
7966;BME280;4028;43.272;26.932;2023-03-24T00:23:58;99289.59;;;7.29;100.00
7966;BME280;4028;43.272;26.932;2023-03-24T00:26:25;99287.66;;;7.20;100.00
7966;BME280;4028;43.272;26.932;2023-03-24T00:28:53;99285.03;;;7.32;100.00
7966;BME280;4028;43.272;26.932;2023-03-24T00:31:19;99283.97;;;7.23;100.00
7966;BME280;4028;43.272;26.932;2023-03-24T00:33:45;99285.03;;;7.20;100.00
7966;BME280;4028;43.272;26.932;2023-03-24T00:36:17;99291.38;;;7.29;100.00
7966;BME280;4028;43.272;26.932;2023-03-24T00:38:45;99297.22;;;7.21;100.00
7966;BME280;4028;43.272;26.932;2023-03-24T00:41:12;99289.72;;;7.17;100.00
7966;BME280;4028;43.272;26.932;2023-03-24T00:43:38;99289.47;;;7.20;100.00
7966;BME280;4028;43.272;26.932;2023-03-24T00:46:09;99293.41;;;7.25;100.00
7966;BME280;4028;43.272;26.932;2023-03-24T00:48:35;99286.13;;;7.18;100.00
7966;BME280;4028;43.272;26.932;2023-03-24T00:51:03;99293.19;;;7.17;100.00
7966;BME280;4028;43.272;26.932;2023-03-24T00:53:32;99286.84;;;7.20;100.00
7966;BME280;4028;43.272;26.932;2023-03-24T00:55:59;99291.38;;;7.18;100.00
7966;BME280;4028;43.272;26.932;2023-03-24T00:58:25;99289.94;;;7.14;100.00
7966;BME280;4028;43.272;26.932;2023-03-24T01:00:55;99291.25;;;7.08;100.00
7966;BME280;4028;43.272;26.932;2023-03-24T01:03:22;99292.31;;;7.06;100.00
7966;BME280;4028;43.272;26.932;2023-03-24T01:05:53;99279.50;;;6.90;100.00
7966;BME280;4028;43.272;26.932;2023-03-24T01:08:22;99296.03;;;7.03;100.00
7966;BME280;4028;43.272;26.932;2023-03-24T01:10:50;99287.03;;;6.94;100.00
7966;BME280;4028;43.272;26.932;2023-03-24T01:13:23;99287.19;;;7.15;100.00
7966;BME280;4028;43.272;26.932;2023-03-24T01:15:49;99280.72;;;6.97;100.00
7966;BME280;4028;43.272;26.932;2023-03-24T01:18:15;99285.72;;;6.89;100.00
7966;BME280;4028;43.272;26.932;2023-03-24T01:20:43;99292.19;;;6.96;100.00
7966;BME280;4028;43.272;26.932;2023-03-24T01:23:15;99288.34;;;6.89;100.00
7966;BME280;4028;43.272;26.932;2023-03-24T01:25:41;99282.00;;;6.80;100.00
7966;BME280;4028;43.272;26.932;2023-03-24T01:28:11;99281.28;;;6.78;100.00
7966;BME280;4028;43.272;26.932;2023-03-24T01:30:38;99279.97;;;6.72;100.00
7966;BME280;4028;43.272;26.932;2023-03-24T01:33:04;99279.50;;;6.78;100.00
7966;BME280;4028;43.272;26.932;2023-03-24T01:35:30;99277.31;;;6.72;100.00
7966;BME280;4028;43.272;26.932;2023-03-24T01:37:56;99278.31;;;6.83;100.00
7966;BME280;4028;43.272;26.932;2023-03-24T01:40:27;99281.28;;;6.78;100.00
7966;BME280;4028;43.272;26.932;2023-03-24T01:42:53;99278.28;;;6.71;100.00
7966;BME280;4028;43.272;26.932;2023-03-24T01:51:10;99286.28;;;6.70;100.00
7966;BME280;4028;43.272;26.932;2023-03-24T01:53:41;99274.69;;;6.61;100.00
7966;BME280;4028;43.272;26.932;2023-03-24T01:56:08;99277.31;;;6.72;100.00
7966;BME280;4028;43.272;26.932;2023-03-24T01:58:37;99280.78;;;6.73;100.00
7966;BME280;4028;43.272;26.932;2023-03-24T02:01:04;99288.19;;;6.68;100.00
7966;BME280;4028;43.272;26.932;2023-03-24T02:03:30;99286.88;;;6.62;100.00
7966;BME280;4028;43.272;26.932;2023-03-24T02:05:58;99297.59;;;6.59;100.00
7966;BME280;4028;43.272;26.932;2023-03-24T02:10:56;99297.38;;;6.62;100.00
7966;BME280;4028;43.272;26.932;2023-03-24T02:13:22;99298.44;;;6.60;100.00
7966;BME280;4028;43.272;26.932;2023-03-24T02:26:20;99300.38;;;6.69;100.00
7966;BME280;4028;43.272;26.932;2023-03-24T02:48:31;99319.03;;;6.66;100.00
7966;BME280;4028;43.272;26.932;2023-03-24T02:59:02;99305.16;;;6.64;100.00
7966;BME280;4028;43.272;26.932;2023-03-24T03:01:39;99279.66;;;6.53;100.00
7966;BME280;4028;43.272;26.932;2023-03-24T03:04:15;99257.44;;;6.46;100.00
7966;BME280;4028;43.272;26.932;2023-03-24T03:06:46;99258.13;;;6.48;100.00
7966;BME280;4028;43.272;26.932;2023-03-24T03:09:16;99267.81;;;6.47;100.00
7966;BME280;4028;43.272;26.932;2023-03-24T03:11:46;99266.38;;;6.43;100.00
7966;BME280;4028;43.272;26.932;2023-03-24T03:14:31;99276.41;;;6.49;100.00
7966;BME280;4028;43.272;26.932;2023-03-24T03:17:08;99281.59;;;6.62;100.00
7966;BME280;4028;43.272;26.932;2023-03-24T03:19:39;99268.28;;;6.41;100.00
7966;BME280;4028;43.272;26.932;2023-03-24T03:22:11;99274.41;;;6.53;100.00
7966;BME280;4028;43.272;26.932;2023-03-24T03:24:41;99273.78;;;6.49;100.00
7966;BME280;4028;43.272;26.932;2023-03-24T03:27:14;99278.16;;;6.62;100.00
7966;BME280;4028;43.272;26.932;2023-03-24T03:29:44;99275.81;;;6.46;100.00
7966;BME280;4028;43.272;26.932;2023-03-24T03:32:17;99262.53;;;6.36;100.00
7966;BME280;4028;43.272;26.932;2023-03-24T03:34:48;99268.28;;;6.41;100.00
7966;BME280;4028;43.272;26.932;2023-03-24T03:37:19;99273.53;;;6.41;100.00
7966;BME280;4028;43.272;26.932;2023-03-24T03:39:55;99273.66;;;6.40;100.00
7966;BME280;4028;43.272;26.932;2023-03-24T03:42:21;99237.22;;;6.35;100.00
7966;BME280;4028;43.272;26.932;2023-03-24T03:44:47;99266.63;;;6.51;100.00
7966;BME280;4028;43.272;26.932;2023-03-24T03:47:13;99257.91;;;6.40;100.00
7966;BME280;4028;43.272;26.932;2023-03-24T03:49:40;99262.56;;;6.47;100.00
7966;BME280;4028;43.272;26.932;2023-03-24T03:52:05;99262.91;;;6.43;100.00
7966;BME280;4028;43.272;26.932;2023-03-24T03:54:32;99261.34;;;6.40;100.00
7966;BME280;4028;43.272;26.932;2023-03-24T03:56:59;99254.66;;;6.47;100.00
7966;BME280;4028;43.272;26.932;2023-03-24T03:59:27;99258.38;;;6.45;100.00
7966;BME280;4028;43.272;26.932;2023-03-24T04:01:53;99248.91;;;6.42;100.00
7966;BME280;4028;43.272;26.932;2023-03-24T04:04:36;99258.22;;;6.35;100.00
7966;BME280;4028;43.272;26.932;2023-03-24T04:07:23;99255.94;;;6.31;100.00
7966;BME280;4028;43.272;26.932;2023-03-24T04:21:19;99279.44;;;5.97;100.00
7966;BME280;4028;43.272;26.932;2023-03-24T04:24:09;99275.97;;;5.96;100.00
7966;BME280;4028;43.272;26.932;2023-03-24T04:29:19;99274.91;;;5.86;100.00
7966;BME280;4028;43.272;26.932;2023-03-24T04:34:31;99286.81;;;5.79;100.00
7966;BME280;4028;43.272;26.932;2023-03-24T04:37:37;99287.44;;;5.83;100.00
7966;BME280;4028;43.272;26.932;2023-03-24T04:39:58;99289.44;;;5.92;100.00
7966;BME280;4028;43.272;26.932;2023-03-24T04:42:38;99275.69;;;5.76;100.00
7966;BME280;4028;43.272;26.932;2023-03-24T04:45:07;99298.38;;;5.77;100.00
7966;BME280;4028;43.272;26.932;2023-03-24T04:47:37;99291.91;;;5.69;100.00
7966;BME280;4028;43.272;26.932;2023-03-24T04:50:08;99300.28;;;5.74;100.00
7966;BME280;4028;43.272;26.932;2023-03-24T04:52:37;99298.81;;;5.70;100.00
7966;BME280;4028;43.272;26.932;2023-03-24T04:55:33;99307.91;;;5.78;100.00
7966;BME280;4028;43.272;26.932;2023-03-24T04:57:59;99310.13;;;5.84;100.00
7966;BME280;4028;43.272;26.932;2023-03-24T05:00:26;99314.66;;;5.94;100.00
7966;BME280;4028;43.272;26.932;2023-03-24T05:02:52;99312.72;;;5.96;100.00
7966;BME280;4028;43.272;26.932;2023-03-24T05:05:17;99318.28;;;6.05;100.00
7966;BME280;4028;43.272;26.932;2023-03-24T05:07:43;99314.38;;;6.10;100.00
7966;BME280;4028;43.272;26.932;2023-03-24T05:10:09;99317.50;;;6.15;100.00
7966;BME280;4028;43.272;26.932;2023-03-24T05:12:35;99323.34;;;6.19;100.00
7966;BME280;4028;43.272;26.932;2023-03-24T05:15:01;99316.09;;;6.22;100.00
7966;BME280;4028;43.272;26.932;2023-03-24T05:17:26;99321.47;;;6.21;100.00
7966;BME280;4028;43.272;26.932;2023-03-24T05:19:52;99330.25;;;6.33;100.00
7966;BME280;4028;43.272;26.932;2023-03-24T05:22:17;99331.50;;;6.40;100.00
7966;BME280;4028;43.272;26.932;2023-03-24T05:24:43;99338.78;;;6.47;100.00
7966;BME280;4028;43.272;26.932;2023-03-24T05:27:08;99327.31;;;6.48;100.00
7966;BME280;4028;43.272;26.932;2023-03-24T05:29:34;99339.66;;;6.59;100.00
7966;BME280;4028;43.272;26.932;2023-03-24T05:31:59;99343.63;;;6.65;100.00
7966;BME280;4028;43.272;26.932;2023-03-24T05:34:25;99340.19;;;6.75;100.00
7966;BME280;4028;43.272;26.932;2023-03-24T05:36:50;99344.91;;;6.83;100.00
7966;BME280;4028;43.272;26.932;2023-03-24T05:39:16;99334.50;;;6.82;100.00
7966;BME280;4028;43.272;26.932;2023-03-24T05:41:41;99329.00;;;6.85;100.00
7966;BME280;4028;43.272;26.932;2023-03-24T05:44:07;99328.44;;;7.03;100.00
7966;BME280;4028;43.272;26.932;2023-03-24T05:46:32;99338.97;;;7.15;100.00
7966;BME280;4028;43.272;26.932;2023-03-24T05:48:57;99331.91;;;7.15;100.00
7966;BME280;4028;43.272;26.932;2023-03-24T05:51:23;99323.06;;;7.05;100.00
7966;BME280;4028;43.272;26.932;2023-03-24T05:53:48;99338.75;;;7.18;100.00
7966;BME280;4028;43.272;26.932;2023-03-24T05:56:16;99349.53;;;7.26;100.00
7966;BME280;4028;43.272;26.932;2023-03-24T05:58:41;99313.50;;;7.04;100.00
7966;BME280;4028;43.272;26.932;2023-03-24T06:01:09;99343.44;;;7.37;100.00
7966;BME280;4028;43.272;26.932;2023-03-24T06:03:36;99344.78;;;7.42;100.00
7966;BME280;4028;43.272;26.932;2023-03-24T06:06:07;99339.63;;;7.63;100.00
7966;BME280;4028;43.272;26.932;2023-03-24T06:08:33;99329.44;;;7.59;100.00
7966;BME280;4028;43.272;26.932;2023-03-24T06:11:01;99336.50;;;7.69;100.00
7966;BME280;4028;43.272;26.932;2023-03-24T06:13:28;99335.50;;;7.93;100.00
7966;BME280;4028;43.272;26.932;2023-03-24T06:15:53;99330.91;;;8.17;100.00
7966;BME280;4028;43.272;26.932;2023-03-24T06:18:23;99325.13;;;8.34;100.00
7966;BME280;4028;43.272;26.932;2023-03-24T06:20:48;99324.91;;;8.91;100.00
7966;BME280;4028;43.272;26.932;2023-03-24T06:23:15;99305.66;;;9.30;100.00
7966;BME280;4028;43.272;26.932;2023-03-24T06:25:41;99322.13;;;10.24;100.00
7966;BME280;4028;43.272;26.932;2023-03-24T06:28:11;99316.34;;;11.16;100.00
7966;BME280;4028;43.272;26.932;2023-03-24T06:30:38;99315.03;;;12.22;100.00
7966;BME280;4028;43.272;26.932;2023-03-24T06:33:04;99309.25;;;13.24;100.00
7966;BME280;4028;43.272;26.932;2023-03-24T06:35:30;99314.78;;;13.99;100.00
7966;BME280;4028;43.272;26.932;2023-03-24T06:37:56;99318.69;;;14.37;100.00
7966;BME280;4028;43.272;26.932;2023-03-24T06:40:21;99320.25;;;14.89;100.00
7966;BME280;4028;43.272;26.932;2023-03-24T06:42:48;99319.31;;;15.62;100.00
7966;BME280;4028;43.272;26.932;2023-03-24T06:45:14;99312.09;;;16.41;100.00
7966;BME280;4028;43.272;26.932;2023-03-24T06:47:39;99304.28;;;16.85;84.90
7966;BME280;4028;43.272;26.932;2023-03-24T06:50:05;99301.66;;;17.14;79.09
7966;BME280;4028;43.272;26.932;2023-03-24T06:52:32;99301.59;;;17.52;77.72
7966;BME280;4028;43.272;26.932;2023-03-24T06:54:58;99310.91;;;17.56;74.84
7966;BME280;4028;43.272;26.932;2023-03-24T06:57:24;99309.69;;;17.29;81.02
7966;BME280;4028;43.272;26.932;2023-03-24T06:59:50;99316.09;;;17.87;78.88
7966;BME280;4028;43.272;26.932;2023-03-24T07:02:15;99314.03;;;18.04;71.39
7966;BME280;4028;43.272;26.932;2023-03-24T07:04:41;99313.09;;;18.48;66.91
7966;BME280;4028;43.272;26.932;2023-03-24T07:07:08;99285.88;;;18.30;66.46
7966;BME280;4028;43.272;26.932;2023-03-24T07:09:34;99315.66;;;18.20;67.31
7966;BME280;4028;43.272;26.932;2023-03-24T07:12:00;99305.72;;;17.99;67.74
7966;BME280;4028;43.272;26.932;2023-03-24T07:14:27;99317.22;;;18.51;67.77
7966;BME280;4028;43.272;26.932;2023-03-24T07:16:53;99325.19;;;19.08;65.13
7966;BME280;4028;43.272;26.932;2023-03-24T07:19:18;99333.69;;;19.68;61.72
7966;BME280;4028;43.272;26.932;2023-03-24T07:21:44;99306.59;;;20.11;59.19
7966;BME280;4028;43.272;26.932;2023-03-24T07:24:15;99319.16;;;20.51;56.93
7966;BME280;4028;43.272;26.932;2023-03-24T07:26:40;99329.50;;;20.61;56.20
7966;BME280;4028;43.272;26.932;2023-03-24T07:29:06;99324.56;;;20.98;55.66
7966;BME280;4028;43.272;26.932;2023-03-24T07:31:31;99324.16;;;21.27;55.48
7966;BME280;4028;43.272;26.932;2023-03-24T07:34:02;99323.53;;;21.12;54.13
7966;BME280;4028;43.272;26.932;2023-03-24T07:36:27;99320.22;;;21.23;53.67
7966;BME280;4028;43.272;26.932;2023-03-24T07:38:53;99319.59;;;21.54;52.70
7966;BME280;4028;43.272;26.932;2023-03-24T07:41:18;99324.19;;;21.41;51.32
7966;BME280;4028;43.272;26.932;2023-03-24T07:43:44;99327.25;;;21.44;51.04
7966;BME280;4028;43.272;26.932;2023-03-24T07:46:10;99328.31;;;21.10;51.67
7966;BME280;4028;43.272;26.932;2023-03-24T07:48:35;99324.78;;;21.23;51.56
7966;BME280;4028;43.272;26.932;2023-03-24T07:51:01;99328.91;;;21.59;50.75
7966;BME280;4028;43.272;26.932;2023-03-24T07:53:26;99322.53;;;21.20;49.45
7966;BME280;4028;43.272;26.932;2023-03-24T07:55:52;99319.63;;;21.21;50.78
7966;BME280;4028;43.272;26.932;2023-03-24T07:58:17;99326.59;;;21.69;50.68
7966;BME280;4028;43.272;26.932;2023-03-24T08:00:42;99322.94;;;22.08;49.16
7966;BME280;4028;43.272;26.932;2023-03-24T08:03:11;99320.47;;;22.13;47.92
7966;BME280;4028;43.272;26.932;2023-03-24T08:05:38;99316.31;;;22.04;48.26
7966;BME280;4028;43.272;26.932;2023-03-24T08:08:04;99324.41;;;22.17;48.79
7966;BME280;4028;43.272;26.932;2023-03-24T08:10:31;99321.72;;;22.04;48.33
7966;BME280;4028;43.272;26.932;2023-03-24T08:12:57;99316.72;;;21.43;48.50
7966;BME280;4028;43.272;26.932;2023-03-24T08:15:24;99315.03;;;21.28;49.42
7966;BME280;4028;43.272;26.932;2023-03-24T08:17:50;99318.16;;;21.12;49.79
7966;BME280;4028;43.272;26.932;2023-03-24T08:20:17;99323.13;;;20.75;51.01
7966;BME280;4028;43.272;26.932;2023-03-24T08:22:45;99314.25;;;20.95;51.14
7966;BME280;4028;43.272;26.932;2023-03-24T08:25:14;99316.31;;;21.06;50.38
7966;BME280;4028;43.272;26.932;2023-03-24T08:27:41;99309.44;;;20.57;51.17
7966;BME280;4028;43.272;26.932;2023-03-24T08:30:12;99311.75;;;20.73;51.55
7966;BME280;4028;43.272;26.932;2023-03-24T08:33:04;99303.44;;;21.54;50.89
7966;BME280;4028;43.272;26.932;2023-03-24T08:35:34;99291.34;;;21.84;48.06
7966;BME280;4028;43.272;26.932;2023-03-24T08:38:03;99291.59;;;21.69;49.10
7966;BME280;4028;43.272;26.932;2023-03-24T08:40:29;99297.47;;;21.46;48.21
7966;BME280;4028;43.272;26.932;2023-03-24T08:42:58;99279.31;;;21.79;49.04
7966;BME280;4028;43.272;26.932;2023-03-24T08:45:26;99290.19;;;22.18;48.39
7966;BME280;4028;43.272;26.932;2023-03-24T08:47:54;99284.47;;;21.88;48.03
7966;BME280;4028;43.272;26.932;2023-03-24T08:50:21;99291.41;;;22.15;48.44
7966;BME280;4028;43.272;26.932;2023-03-24T08:52:48;99287.16;;;22.39;47.77
7966;BME280;4028;43.272;26.932;2023-03-24T08:55:18;99284.81;;;22.49;46.87
7966;BME280;4028;43.272;26.932;2023-03-24T08:57:44;99256.53;;;22.58;46.64
7966;BME280;4028;43.272;26.932;2023-03-24T09:00:10;99278.13;;;22.83;43.95
7966;BME280;4028;43.272;26.932;2023-03-24T09:02:41;99276.00;;;21.91;42.66
7966;BME280;4028;43.272;26.932;2023-03-24T09:05:07;99275.09;;;21.45;45.29
7966;BME280;4028;43.272;26.932;2023-03-24T09:07:32;99279.91;;;21.30;45.31
7966;BME280;4028;43.272;26.932;2023-03-24T09:09:58;99271.25;;;21.79;44.52
7966;BME280;4028;43.272;26.932;2023-03-24T09:12:23;99244.56;;;21.71;44.27
7966;BME280;4028;43.272;26.932;2023-03-24T09:14:49;99264.53;;;22.02;44.18
7966;BME280;4028;43.272;26.932;2023-03-24T09:17:15;99259.31;;;22.07;44.98
7966;BME280;4028;43.272;26.932;2023-03-24T09:19:41;99259.59;;;22.37;43.76
7966;BME280;4028;43.272;26.932;2023-03-24T09:22:07;99260.91;;;22.84;42.89
7966;BME280;4028;43.272;26.932;2023-03-24T09:24:33;99252.19;;;22.57;42.38
7966;BME280;4028;43.272;26.932;2023-03-24T09:26:58;99260.25;;;22.26;42.49
7966;BME280;4028;43.272;26.932;2023-03-24T09:29:24;99260.66;;;22.29;43.13
7966;BME280;4028;43.272;26.932;2023-03-24T09:31:49;99262.44;;;22.74;42.39
7966;BME280;4028;43.272;26.932;2023-03-24T09:34:16;99267.25;;;21.95;42.26
7966;BME280;4028;43.272;26.932;2023-03-24T09:36:41;99265.53;;;22.14;43.18
7966;BME280;4028;43.272;26.932;2023-03-24T09:39:07;99262.69;;;21.96;42.55
7966;BME280;4028;43.272;26.932;2023-03-24T09:41:33;99263.84;;;21.68;43.17
7966;BME280;4028;43.272;26.932;2023-03-24T09:44:26;99261.06;;;21.88;42.98
7966;BME280;4028;43.272;26.932;2023-03-24T09:46:58;99262.78;;;21.69;42.84
7966;BME280;4028;43.272;26.932;2023-03-24T09:49:29;99252.28;;;22.13;42.97
7966;BME280;4028;43.272;26.932;2023-03-24T09:52:04;99248.72;;;22.50;43.01
7966;BME280;4028;43.272;26.932;2023-03-24T09:54:52;99258.19;;;22.84;43.25
7966;BME280;4028;43.272;26.932;2023-03-24T09:59:53;99255.41;;;22.98;42.19
7966;BME280;4028;43.272;26.932;2023-03-24T10:02:20;99249.75;;;23.24;40.98
7966;BME280;4028;43.272;26.932;2023-03-24T10:04:47;99252.00;;;23.09;40.81
7966;BME280;4028;43.272;26.932;2023-03-24T10:07:30;99240.75;;;22.30;42.01
7966;BME280;4028;43.272;26.932;2023-03-24T10:09:58;99238.41;;;22.41;43.23
7966;BME280;4028;43.272;26.932;2023-03-24T10:12:30;99245.19;;;22.18;42.40
7966;BME280;4028;43.272;26.932;2023-03-24T10:15:09;99237.03;;;21.87;44.00
7966;BME280;4028;43.272;26.932;2023-03-24T10:17:40;99233.19;;;22.46;43.08
7966;BME280;4028;43.272;26.932;2023-03-24T10:25:51;99240.06;;;22.67;40.70
7966;BME280;4028;43.272;26.932;2023-03-24T10:28:33;99239.16;;;23.23;41.19
7966;BME280;4028;43.272;26.932;2023-03-24T10:31:04;99237.22;;;23.48;40.59
7966;BME280;4028;43.272;26.932;2023-03-24T10:33:37;99238.53;;;23.64;38.13
7966;BME280;4028;43.272;26.932;2023-03-24T10:36:15;99229.59;;;23.45;37.76
7966;BME280;4028;43.272;26.932;2023-03-24T10:38:42;99239.84;;;23.18;37.78
7966;BME280;4028;43.272;26.932;2023-03-24T10:41:25;99205.06;;;23.10;37.34
7966;BME280;4028;43.272;26.932;2023-03-24T10:43:54;99228.88;;;23.13;37.02
7966;BME280;4028;43.272;26.932;2023-03-24T10:46:23;99226.91;;;22.77;38.58
7966;BME280;4028;43.272;26.932;2023-03-24T10:49:17;99236.13;;;22.69;37.78
7966;BME280;4028;43.272;26.932;2023-03-24T10:51:54;99224.22;;;22.27;38.56
7966;BME280;4028;43.272;26.932;2023-03-24T10:54:27;99217.81;;;22.78;37.72
7966;BME280;4028;43.272;26.932;2023-03-24T11:04:35;99200.41;;;23.17;36.88
7966;BME280;4028;43.272;26.932;2023-03-24T11:07:20;99193.38;;;23.34;37.92
7966;BME280;4028;43.272;26.932;2023-03-24T11:12:37;99192.91;;;23.38;35.51
7966;BME280;4028;43.272;26.932;2023-03-24T11:15:26;99185.47;;;23.51;36.07
7966;BME280;4028;43.272;26.932;2023-03-24T11:20:35;99173.94;;;23.93;34.75
7966;BME280;4028;43.272;26.932;2023-03-24T11:25:40;99170.31;;;23.99;34.24
7966;BME280;4028;43.272;26.932;2023-03-24T11:28:08;99163.53;;;24.08;34.93
7966;BME280;4028;43.272;26.932;2023-03-24T11:30:48;99162.69;;;23.96;34.53
7966;BME280;4028;43.272;26.932;2023-03-24T11:33:26;99161.47;;;23.61;34.88
7966;BME280;4028;43.272;26.932;2023-03-24T11:35:53;99154.88;;;23.76;34.67
7966;BME280;4028;43.272;26.932;2023-03-24T11:38:28;99151.56;;;23.74;34.71
7966;BME280;4028;43.272;26.932;2023-03-24T11:40:58;99152.84;;;23.53;35.00
7966;BME280;4028;43.272;26.932;2023-03-24T11:43:25;99144.75;;;23.53;35.29
7966;BME280;4028;43.272;26.932;2023-03-24T11:46:11;99145.09;;;23.75;35.55
7966;BME280;4028;43.272;26.932;2023-03-24T11:48:47;99145.31;;;24.03;35.54
7966;BME280;4028;43.272;26.932;2023-03-24T11:51:36;99137.44;;;24.02;35.17
7966;BME280;4028;43.272;26.932;2023-03-24T11:54:08;99135.31;;;24.04;35.29
7966;BME280;4028;43.272;26.932;2023-03-24T12:02:11;99133.44;;;24.04;34.73
7966;BME280;4028;43.272;26.932;2023-03-24T12:04:58;99128.41;;;24.08;35.73
7966;BME280;4028;43.272;26.932;2023-03-24T12:13:08;99112.72;;;23.56;35.68
7966;BME280;4028;43.272;26.932;2023-03-24T12:21:27;99114.13;;;23.29;35.59
7966;BME280;4028;43.272;26.932;2023-03-24T12:37:01;99090.84;;;23.46;36.50
7966;BME280;4028;43.272;26.932;2023-03-24T12:39:34;99092.00;;;23.20;36.94
7966;BME280;4028;43.272;26.932;2023-03-24T12:42:11;99086.41;;;23.33;36.62
7966;BME280;4028;43.272;26.932;2023-03-24T12:57:50;99062.78;;;23.47;35.59
7966;BME280;4028;43.272;26.932;2023-03-24T13:00:26;99051.41;;;23.57;34.97
7966;BME280;4028;43.272;26.932;2023-03-24T13:03:03;99055.59;;;23.71;35.62
7966;BME280;4028;43.272;26.932;2023-03-24T13:05:32;99058.63;;;23.63;35.47
7966;BME280;4028;43.272;26.932;2023-03-24T13:08:08;99045.13;;;23.63;35.52
7966;BME280;4028;43.272;26.932;2023-03-24T13:10:37;99046.00;;;23.75;35.22
7966;BME280;4028;43.272;26.932;2023-03-24T13:15:55;99045.13;;;23.75;34.71
7966;BME280;4028;43.272;26.932;2023-03-24T13:18:37;99045.66;;;23.23;35.50
7966;BME280;4028;43.272;26.932;2023-03-24T13:21:08;99043.53;;;22.95;35.90
7966;BME280;4028;43.272;26.932;2023-03-24T13:23:51;99041.47;;;22.72;37.04
7966;BME280;4028;43.272;26.932;2023-03-24T13:31:21;99036.47;;;22.57;36.64
7966;BME280;4028;43.272;26.932;2023-03-24T13:33:48;99033.91;;;22.44;36.94
7966;BME280;4028;43.272;26.932;2023-03-24T13:36:25;99018.50;;;22.70;36.07
7966;BME280;4028;43.272;26.932;2023-03-24T13:38:55;99014.59;;;22.66;36.66
7966;BME280;4028;43.272;26.932;2023-03-24T13:41:23;99013.53;;;22.67;36.63
7966;BME280;4028;43.272;26.932;2023-03-24T13:44:17;99008.28;;;22.72;36.59
7966;BME280;4028;43.272;26.932;2023-03-24T13:49:41;99001.78;;;22.61;37.05
7966;BME280;4028;43.272;26.932;2023-03-24T13:52:37;99012.13;;;22.64;37.08
7966;BME280;4028;43.272;26.932;2023-03-24T13:55:12;99014.97;;;22.51;36.11
7966;BME280;4028;43.272;26.932;2023-03-24T13:57:54;99010.75;;;22.18;36.79
7966;BME280;4028;43.272;26.932;2023-03-24T14:00:23;99010.81;;;22.12;37.52
7966;BME280;4028;43.272;26.932;2023-03-24T14:02:54;99000.78;;;21.94;35.65
7966;BME280;4028;43.272;26.932;2023-03-24T14:15:49;98993.84;;;21.54;35.87
7966;BME280;4028;43.272;26.932;2023-03-24T14:21:03;98996.81;;;21.46;36.48
7966;BME280;4028;43.272;26.932;2023-03-24T14:23:39;98994.19;;;21.40;35.95
7966;BME280;4028;43.272;26.932;2023-03-24T14:28:38;98994.84;;;21.22;34.68
7966;BME280;4028;43.272;26.932;2023-03-24T14:31:19;98996.50;;;21.23;35.68
7966;BME280;4028;43.272;26.932;2023-03-24T14:38:50;98976.84;;;21.22;36.49
7966;BME280;4028;43.272;26.932;2023-03-24T14:41:26;98982.00;;;21.31;35.27
7966;BME280;4028;43.272;26.932;2023-03-24T14:43:55;98988.06;;;21.19;36.86
7966;BME280;4028;43.272;26.932;2023-03-24T14:54:15;98979.81;;;21.08;37.24
7966;BME280;4028;43.272;26.932;2023-03-24T14:56:44;98970.03;;;20.88;37.77
7966;BME280;4028;43.272;26.932;2023-03-24T15:01:46;98964.88;;;20.80;38.17
7966;BME280;4028;43.272;26.932;2023-03-24T15:04:13;98956.16;;;20.85;37.09
7966;BME280;4028;43.272;26.932;2023-03-24T15:06:46;98960.31;;;20.81;37.05
7966;BME280;4028;43.272;26.932;2023-03-24T15:09:16;98968.78;;;20.84;37.07
7966;BME280;4028;43.272;26.932;2023-03-24T15:11:43;98962.03;;;20.68;37.90
7966;BME280;4028;43.272;26.932;2023-03-24T15:14:25;98954.63;;;20.57;37.27
7966;BME280;4028;43.272;26.932;2023-03-24T15:16:53;98954.44;;;20.52;37.83
7966;BME280;4028;43.272;26.932;2023-03-24T15:19:23;98957.31;;;20.57;38.38
7966;BME280;4028;43.272;26.932;2023-03-24T15:21:57;98964.19;;;20.53;38.55
7966;BME280;4028;43.272;26.932;2023-03-24T15:24:32;98959.84;;;20.39;39.02
7966;BME280;4028;43.272;26.932;2023-03-24T15:29:31;98960.06;;;20.37;40.35
7966;BME280;4028;43.272;26.932;2023-03-24T15:31:56;98962.75;;;20.31;42.06
7966;BME280;4028;43.272;26.932;2023-03-24T15:34:33;98958.31;;;19.91;42.77
7966;BME280;4028;43.272;26.932;2023-03-24T15:37:02;98972.53;;;19.79;43.77
7966;BME280;4028;43.272;26.932;2023-03-24T15:39:32;98970.28;;;19.69;45.90
7966;BME280;4028;43.272;26.932;2023-03-24T15:41:58;98968.63;;;19.74;47.27
7966;BME280;4028;43.272;26.932;2023-03-24T15:44:27;98976.84;;;19.53;48.75
7966;BME280;4028;43.272;26.932;2023-03-24T15:46:57;98970.84;;;19.38;50.15
7966;BME280;4028;43.272;26.932;2023-03-24T15:49:44;98969.16;;;19.23;51.07
7966;BME280;4028;43.272;26.932;2023-03-24T15:52:30;98970.63;;;19.19;52.28
7966;BME280;4028;43.272;26.932;2023-03-24T15:55:01;98969.16;;;19.10;53.27
7966;BME280;4028;43.272;26.932;2023-03-24T15:57:38;98975.72;;;18.94;54.11
7966;BME280;4028;43.272;26.932;2023-03-24T16:00:22;98976.31;;;18.90;54.43
7966;BME280;4028;43.272;26.932;2023-03-24T16:02:51;98976.69;;;18.80;54.53
7966;BME280;4028;43.272;26.932;2023-03-24T16:05:24;98982.06;;;18.80;54.80
7966;BME280;4028;43.272;26.932;2023-03-24T16:12:51;98978.41;;;18.53;55.60
7966;BME280;4028;43.272;26.932;2023-03-24T16:15:17;98989.28;;;18.45;56.28
7966;BME280;4028;43.272;26.932;2023-03-24T16:17:42;98993.75;;;18.31;57.10
7966;BME280;4028;43.272;26.932;2023-03-24T16:20:18;98993.72;;;18.25;57.87
7966;BME280;4028;43.272;26.932;2023-03-24T16:22:44;98995.56;;;18.24;58.59
7966;BME280;4028;43.272;26.932;2023-03-24T16:25:11;98994.09;;;18.22;59.21